Time;durP1;ratioP1;P1;durP2;ratioP2;P2;SDS_P1;SDS_P2;PMS_P1;PMS_P2;Temp;Humidity;BMP_temperature;BMP_pressure;BME280_temperature;BME280_humidity;BME280_pressure;Samples;Min_cycle;Max_cycle;Signal;HPM_P1;HPM_P2
2021/12/07 00:01:36;;;;;;;33.10;21.27;;;179.40;1971.20;;;;;;5015090;28;20473;-63
2021/12/07 00:04:02;;;;;;;35.03;20.98;;;179.50;1945.60;;;;;;5015054;28;20038;-61
2021/12/07 00:06:28;;;;;;;35.00;21.95;;;179.50;1945.60;;;;;;5014742;28;20088;-61
2021/12/07 00:08:56;;;;;;;39.08;24.35;;;179.50;1945.60;;;;;;5015291;28;20030;-61
2021/12/07 00:11:27;;;;;;;34.58;22.75;;;179.40;1945.60;;;;;;5015028;28;20029;-61
2021/12/07 00:13:54;;;;;;;36.97;22.20;;;179.50;1971.20;;;;;;5014917;28;20038;-61
2021/12/07 00:16:20;;;;;;;35.70;21.90;;;179.50;1945.60;;;;;;5014852;28;20529;-61
2021/12/07 00:18:46;;;;;;;37.88;24.23;;;179.40;1920.00;;;;;;5067960;28;20044;-61
2021/12/07 00:21:16;;;;;;;34.83;22.15;;;179.40;1945.60;;;;;;5076683;28;20029;-61
2021/12/07 00:23:42;;;;;;;32.25;21.83;;;179.50;1945.60;;;;;;5076666;28;20032;-60
2021/12/07 00:26:09;;;;;;;34.10;22.95;;;179.50;1920.00;;;;;;5076434;28;20032;-60
2021/12/07 00:28:35;;;;;;;35.35;21.45;;;179.40;1945.60;;;;;;5076490;28;20474;-62
2021/12/07 00:31:10;;;;;;;34.28;22.33;;;179.40;1945.60;;;;;;5076304;28;20063;-61
2021/12/07 00:33:45;;;;;;;;;;;179.40;1920.00;;;;;;5076632;28;20039;-62
2021/12/07 00:36:11;;;;;;;37.28;23.70;;;179.40;1945.60;;;;;;5076273;28;19950;-62
2021/12/07 00:38:38;;;;;;;36.60;22.60;;;179.40;1945.60;;;;;;5076211;28;20032;-63
2021/12/07 00:41:04;;;;;;;33.42;20.73;;;179.40;1945.60;;;;;;5074911;28;20029;-63
2021/12/07 00:43:32;;;;;;;37.70;22.25;;;179.40;1945.60;;;;;;5075867;28;20047;-62
2021/12/07 00:46:00;;;;;;;35.05;20.40;;;179.40;1945.60;;;;;;5076099;28;20029;-61
2021/12/07 00:48:26;;;;;;;32.15;20.30;;;179.40;1894.40;;;;;;5076257;28;20470;-61
2021/12/07 00:50:54;;;;;;;36.80;21.52;;;179.40;1920.00;;;;;;5076140;28;20468;-62
2021/12/07 00:53:21;;;;;;;33.30;19.73;;;179.30;1945.60;;;;;;5075679;28;20040;-62
2021/12/07 00:55:51;;;;;;;35.33;20.45;;;179.40;1920.00;;;;;;5075194;28;20433;-64
2021/12/07 00:58:21;;;;;;;29.60;19.75;;;179.40;1868.80;;;;;;5076034;28;20066;-62
2021/12/07 01:00:51;;;;;;;29.92;19.08;;;179.30;1945.60;;;;;;5075765;28;20055;-63
2021/12/07 01:03:17;;;;;;;30.55;18.30;;;179.30;1945.60;;;;;;5075766;28;20032;-64
2021/12/07 01:05:49;;;;;;;35.90;20.52;;;179.30;1894.40;;;;;;5075790;28;20078;-62
2021/12/07 01:24:50;;;;;;;29.77;18.48;;;154.50;1920.00;;;;;;5053337;28;20041;-62
2021/12/07 01:27:18;;;;;;;26.58;17.63;;;154.50;1945.60;;;;;;5053418;28;20033;-61
2021/12/07 01:29:56;;;;;;;27.55;18.23;;;179.20;1894.40;;;;;;5053411;28;20029;-63
2021/12/07 01:32:45;;;;;;;27.95;18.15;;;179.20;1868.80;;;;;;5053056;28;20033;-59
2021/12/07 01:35:45;;;;;;;30.45;19.70;;;154.50;1920.00;;;;;;5053198;28;20052;-58
2021/12/07 01:38:28;;;;;;;32.30;18.90;;;179.20;1894.40;;;;;;5053029;28;20036;-58
2021/12/07 02:01:48;;;;;;;31.02;19.75;;;154.40;1945.60;;;;;;5012989;28;20065;-58
2021/12/07 02:04:14;;;;;;;22.48;15.63;;;154.40;1894.40;;;;;;5012950;28;20035;-57
2021/12/07 02:06:40;;;;;;;30.35;19.17;;;154.20;1920.00;;;;;;5011997;28;20022;-59
2021/12/07 02:09:08;;;;;;;31.58;19.50;;;154.10;1945.60;;;;;;5012825;28;20522;-58
2021/12/07 02:11:34;;;;;;;30.05;18.08;;;154.20;1945.60;;;;;;5012661;28;20030;-58
2021/12/07 02:16:29;;;;;;;30.83;19.20;;;154.00;1920.00;;;;;;5012555;28;20064;-59
2021/12/07 02:18:55;;;;;;;32.25;19.58;;;154.00;1945.60;;;;;;5013374;28;20029;-58
2021/12/07 02:21:25;;;;;;;30.70;18.27;;;154.10;1971.20;;;;;;5012659;28;20029;-58
2021/12/07 02:23:52;;;;;;;30.63;18.75;;;154.10;1945.60;;;;;;5063875;28;20127;-58
2021/12/07 02:26:18;;;;;;;29.77;18.35;;;154.00;1945.60;;;;;;5073971;28;20020;-58
2021/12/07 02:28:45;;;;;;;32.70;18.60;;;153.90;1945.60;;;;;;5074248;28;20057;-59
2021/12/07 02:31:11;;;;;;;28.75;18.73;;;154.00;1996.80;;;;;;5073999;28;20381;-59
2021/12/07 02:33:38;;;;;;;33.60;20.45;;;154.00;1945.60;;;;;;5074202;28;20035;-58
2021/12/07 02:36:05;;;;;;;34.05;19.88;;;153.90;1945.60;;;;;;5074062;28;20485;-58
2021/12/07 02:38:32;;;;;;;34.97;20.65;;;153.90;1971.20;;;;;;5073995;28;20382;-59
2021/12/07 02:40:58;;;;;;;30.77;19.00;;;154.00;1971.20;;;;;;5074011;28;20048;-58
2021/12/07 02:43:24;;;;;;;31.35;19.05;;;153.90;1971.20;;;;;;5073743;28;20072;-58
2021/12/07 02:45:50;;;;;;;27.83;17.10;;;153.90;1945.60;;;;;;5073981;28;20095;-58
2021/12/07 02:48:16;;;;;;;29.92;18.35;;;153.90;1920.00;;;;;;5073758;28;20055;-57
2021/12/07 02:50:42;;;;;;;31.42;18.75;;;153.90;1920.00;;;;;;5073877;28;20035;-57
2021/12/07 02:53:08;;;;;;;29.25;17.23;;;153.90;1894.40;;;;;;5073853;28;20028;-58
2021/12/07 02:55:34;;;;;;;28.63;18.05;;;153.90;1894.40;;;;;;5073924;28;20032;-58
2021/12/07 02:58:00;;;;;;;30.90;18.83;;;153.90;1894.40;;;;;;5073881;28;20025;-57
2021/12/07 03:00:33;;;;;;;29.15;18.60;;;153.90;1920.00;;;;;;5073562;28;20469;-57
2021/12/07 03:03:07;;;;;;;29.00;18.08;;;153.90;1971.20;;;;;;5073674;28;20029;-57
2021/12/07 03:27:28;;;;;;;29.43;18.17;;;154.20;1920.00;;;;;;5080432;28;20077;-58
2021/12/07 03:29:54;;;;;;;29.45;18.55;;;154.20;1945.60;;;;;;5080081;28;20457;-59
2021/12/07 03:32:20;;;;;;;28.40;18.35;;;154.30;1945.60;;;;;;5079871;28;20028;-59
2021/12/07 03:34:45;;;;;;;33.78;19.38;;;154.20;1920.00;;;;;;5079841;28;20043;-58
2021/12/07 03:37:11;;;;;;;34.75;20.42;;;154.20;1920.00;;;;;;5080076;28;20035;-58
2021/12/07 03:39:37;;;;;;;30.92;19.08;;;154.20;1945.60;;;;;;5080274;28;20059;-58
2021/12/07 03:42:03;;;;;;;32.13;18.77;;;154.30;1920.00;;;;;;5079916;28;20466;-59
2021/12/07 03:44:30;;;;;;;30.00;19.48;;;154.20;1945.60;;;;;;5080044;28;20028;-57
2021/12/07 03:46:56;;;;;;;30.65;18.77;;;154.20;1945.60;;;;;;5079987;28;20112;-58
2021/12/07 03:49:22;;;;;;;30.67;18.67;;;154.20;1894.40;;;;;;5079972;28;20093;-57
2021/12/07 03:51:48;;;;;;;32.35;20.08;;;154.20;1920.00;;;;;;5080034;28;20469;-57
2021/12/07 03:54:14;;;;;;;35.67;18.80;;;154.20;1945.60;;;;;;5080067;28;20037;-57
2021/12/07 03:56:40;;;;;;;35.72;21.20;;;154.20;1894.40;;;;;;5079863;28;20020;-58
2021/12/07 03:59:06;;;;;;;35.67;21.05;;;154.20;1920.00;;;;;;5079850;28;20029;-58
2021/12/07 04:01:32;;;;;;;37.00;21.65;;;154.20;1945.60;;;;;;5079647;28;20017;-57
2021/12/07 04:03:57;;;;;;;33.95;20.98;;;154.30;1894.40;;;;;;5079902;28;20036;-58
2021/12/07 04:06:23;;;;;;;33.17;20.08;;;154.20;1920.00;;;;;;5079719;28;20458;-59
2021/12/07 04:08:49;;;;;;;35.67;20.38;;;154.20;1920.00;;;;;;5079922;28;20111;-58
2021/12/07 04:11:16;;;;;;;36.28;19.13;;;154.30;1894.40;;;;;;5079501;28;20474;-58
2021/12/07 04:13:44;;;;;;;38.92;22.33;;;154.30;1868.80;;;;;;5080260;28;20355;-58
2021/12/07 04:16:11;;;;;;;38.28;21.55;;;154.20;1920.00;;;;;;5079655;28;20031;-58
2021/12/07 04:18:37;;;;;;;34.83;21.20;;;154.30;1920.00;;;;;;5079761;28;20527;-58
2021/12/07 04:21:03;;;;;;;45.50;20.70;;;154.40;1945.60;;;;;;5079672;28;20521;-58
2021/12/07 04:23:34;;;;;;;33.15;18.13;;;154.40;1996.80;;;;;;5079743;28;20100;-58
2021/12/07 04:26:01;;;;;;;30.90;18.92;;;154.40;1945.60;;;;;;5079447;28;20056;-57
2021/12/07 04:28:26;;;;;;;33.88;18.67;;;154.40;1945.60;;;;;;5079586;28;20513;-58
2021/12/07 04:30:52;;;;;;;30.40;18.48;;;154.30;1945.60;;;;;;5075594;28;20052;-58
2021/12/07 04:33:18;;;;;;;32.63;19.45;;;154.30;1945.60;;;;;;5076346;28;20089;-59
2021/12/07 04:35:48;;;;;;;31.85;19.88;;;154.20;1945.60;;;;;;5076440;28;20025;-57
2021/12/07 04:38:14;;;;;;;34.22;18.45;;;154.30;1945.60;;;;;;5076411;28;20020;-58
2021/12/07 04:40:40;;;;;;;31.88;19.45;;;154.30;1945.60;;;;;;5076048;28;20035;-58
2021/12/07 04:43:07;;;;;;;36.25;20.40;;;154.30;1945.60;;;;;;5076007;28;20072;-58
2021/12/07 04:58:34;;;;;;;38.78;21.52;;;154.30;1945.60;;;;;;5076207;28;20038;-58
2021/12/07 05:01:06;;;;;;;33.58;18.73;;;154.30;1920.00;;;;;;5075842;28;20028;-57
2021/12/07 05:03:32;;;;;;;31.10;18.80;;;154.30;1920.00;;;;;;5075909;28;20036;-58
2021/12/07 05:05:58;;;;;;;30.95;18.70;;;154.30;1945.60;;;;;;5076088;28;20036;-58
2021/12/07 05:18:52;;;;;;;61.65;25.95;;;154.40;1894.40;;;;;;5075704;28;20111;-59
2021/12/07 05:24:03;;;;;;;50.73;25.80;;;154.30;1920.00;;;;;;5075914;28;20093;-57
2021/12/07 05:37:58;;;;;;;59.25;36.67;;;154.30;1920.00;;;;;;5075236;28;20021;-60
2021/12/07 05:40:10;;;;;;;47.85;29.35;;;154.20;1920.00;;;;;;5069227;28;20035;-59
2021/12/07 05:42:37;;;;;;;39.85;24.20;;;154.20;1920.00;;;;;;5075028;28;20080;-59
2021/12/07 05:45:05;;;;;;;41.30;24.08;;;154.20;1945.60;;;;;;5075120;28;20047;-59
2021/12/07 05:47:31;;;;;;;43.88;24.77;;;154.20;1920.00;;;;;;5075390;28;20412;-60
2021/12/07 05:49:56;;;;;;;44.60;24.52;;;154.20;1920.00;;;;;;5074726;28;20032;-58
2021/12/07 05:52:22;;;;;;;40.42;22.65;;;154.10;1920.00;;;;;;5074948;28;20096;-58
2021/12/07 05:54:48;;;;;;;37.28;21.48;;;154.10;1945.60;;;;;;5074877;28;20041;-58
2021/12/07 05:57:14;;;;;;;38.80;21.50;;;154.20;1920.00;;;;;;5074703;28;20028;-57
2021/12/07 05:59:40;;;;;;;36.65;20.17;;;154.20;1920.00;;;;;;5074681;28;20036;-58
2021/12/07 06:02:06;;;;;;;33.35;19.05;;;154.20;1920.00;;;;;;5074624;28;20024;-57
2021/12/07 06:04:33;;;;;;;36.75;20.05;;;154.20;1920.00;;;;;;5074333;28;20411;-58
2021/12/07 06:06:59;;;;;;;36.35;20.50;;;154.10;1920.00;;;;;;5074104;28;20024;-58
2021/12/07 06:09:26;;;;;;;38.38;21.35;;;154.10;1945.60;;;;;;5074774;28;20028;-59
2021/12/07 06:11:53;;;;;;;40.33;23.52;;;154.10;1945.60;;;;;;5074474;28;20021;-57
2021/12/07 06:14:20;;;;;;;39.85;22.00;;;154.00;1945.60;;;;;;5074349;28;20040;-57
2021/12/07 06:16:49;;;;;;;40.50;22.63;;;154.00;1920.00;;;;;;5074649;28;20021;-57
2021/12/07 06:19:15;;;;;;;43.10;24.45;;;154.10;1920.00;;;;;;5074252;28;20024;-57
2021/12/07 06:21:41;;;;;;;44.33;25.00;;;154.10;1920.00;;;;;;5074165;28;20047;-57
2021/12/07 06:24:06;;;;;;;44.33;24.52;;;154.10;1945.60;;;;;;5074398;28;20021;-58
2021/12/07 06:26:35;;;;;;;41.13;24.52;;;154.20;1920.00;;;;;;5074156;28;20466;-58
2021/12/07 06:29:02;;;;;;;35.88;20.98;;;154.10;1920.00;;;;;;5074172;28;20466;-58
2021/12/07 06:31:28;;;;;;;36.78;22.45;;;154.10;1920.00;;;;;;5074014;28;20060;-56
2021/12/07 06:33:54;;;;;;;36.67;21.80;;;154.10;1920.00;;;;;;5073689;28;20068;-59
2021/12/07 06:36:20;;;;;;;38.08;21.98;;;154.10;1920.00;;;;;;5073728;28;20492;-57
2021/12/07 06:38:47;;;;;;;35.42;20.50;;;154.10;1920.00;;;;;;5074233;28;20024;-59
2021/12/07 06:41:13;;;;;;;36.28;21.40;;;154.10;1920.00;;;;;;5073790;28;20547;-59
2021/12/07 06:43:39;;;;;;;36.83;20.90;;;154.10;1920.00;;;;;;5080613;28;20029;-58
2021/12/07 06:46:05;;;;;;;38.97;21.60;;;154.10;1920.00;;;;;;5073144;28;20020;-57
2021/12/07 06:48:31;;;;;;;44.88;23.55;;;154.10;1920.00;;;;;;5079067;28;20025;-56
2021/12/07 06:50:57;;;;;;;38.42;23.08;;;154.00;1945.60;;;;;;5074044;28;20036;-56
2021/12/07 06:53:23;;;;;;;57.00;28.13;;;154.00;1920.00;;;;;;5073595;28;20036;-56
2021/12/07 06:55:49;;;;;;;57.95;28.92;;;154.00;1920.00;;;;;;5073855;28;20374;-57
2021/12/07 06:58:15;;;;;;;54.97;28.85;;;154.00;1920.00;;;;;;5086781;28;20034;-61
2021/12/07 07:00:41;;;;;;;54.38;27.42;;;154.10;1945.60;;;;;;5088028;28;20157;-64
2021/12/07 07:03:07;;;;;;;49.13;28.30;;;154.10;1920.00;;;;;;5084922;28;20020;-62
2021/12/07 07:05:33;;;;;;;50.30;29.95;;;154.10;1945.60;;;;;;5079086;28;20355;-64
2021/12/07 07:07:59;;;;;;;48.40;27.05;;;154.10;1920.00;;;;;;5083574;28;20099;-60
2021/12/07 07:10:25;;;;;;;53.35;31.15;;;154.20;1920.00;;;;;;5083048;28;20070;-62
2021/12/07 07:12:51;;;;;;;48.58;28.48;;;154.20;1894.40;;;;;;5084119;28;20036;-60
2021/12/07 07:15:17;;;;;;;48.13;26.73;;;154.10;1920.00;;;;;;5082204;28;20029;-60
2021/12/07 07:17:43;;;;;;;51.33;26.27;;;154.20;1894.40;;;;;;5082893;28;20020;-60
2021/12/07 07:20:12;;;;;;;46.25;24.25;;;154.20;1894.40;;;;;;5083806;28;20108;-63
2021/12/07 07:22:39;;;;;;;42.75;25.20;;;154.20;1894.40;;;;;;5083983;28;20081;-61
2021/12/07 07:25:07;;;;;;;43.58;25.85;;;154.20;1894.40;;;;;;5083558;28;20028;-61
2021/12/07 07:27:32;;;;;;;44.85;26.17;;;154.20;1920.00;;;;;;5082295;28;20028;-62
2021/12/07 07:29:58;;;;;;;63.47;36.63;;;154.10;1920.00;;;;;;5083617;28;20080;-62
2021/12/07 07:32:24;;;;;;;67.18;38.50;;;154.10;1920.00;;;;;;5083366;28;20020;-62
2021/12/07 07:34:50;;;;;;;63.78;39.20;;;154.00;1920.00;;;;;;5081765;28;20382;-63
2021/12/07 07:37:16;;;;;;;57.83;35.40;;;154.10;1920.00;;;;;;5083870;28;20020;-63
2021/12/07 07:39:42;;;;;;;57.10;34.15;;;154.20;1894.40;;;;;;5078399;28;20390;-62
2021/12/07 07:42:10;;;;;;;53.65;30.42;;;154.20;1894.40;;;;;;5072595;28;20057;-62
2021/12/07 07:44:36;;;;;;;56.72;31.42;;;154.20;1894.40;;;;;;5073463;28;20040;-61
2021/12/07 07:47:02;;;;;;;72.10;36.95;;;154.20;1868.80;;;;;;5073552;28;20477;-61
2021/12/07 07:49:28;;;;;;;60.85;31.92;;;154.20;1894.40;;;;;;5073367;28;20054;-61
2021/12/07 07:51:53;;;;;;;56.75;30.67;;;154.20;1894.40;;;;;;5073519;28;20142;-62
2021/12/07 07:54:19;;;;;;;54.03;31.30;;;154.10;1920.00;;;;;;5073404;28;20386;-61
2021/12/07 07:56:45;;;;;;;60.20;31.88;;;154.10;1920.00;;;;;;5073448;28;20106;-61
2021/12/07 07:59:10;;;;;;;57.08;31.63;;;154.10;1920.00;;;;;;5073870;28;20086;-64
2021/12/07 08:01:36;;;;;;;57.33;32.05;;;154.10;1920.00;;;;;;5073206;28;20029;-64
2021/12/07 08:04:04;;;;;;;51.88;29.52;;;154.20;1920.00;;;;;;5073316;28;20382;-64
2021/12/07 08:06:30;;;;;;;54.28;30.20;;;154.20;1894.40;;;;;;5076931;28;20458;-64
2021/12/07 08:08:57;;;;;;;52.47;30.17;;;154.20;1894.40;;;;;;5077026;28;20032;-64
2021/12/07 08:11:23;;;;;;;50.22;29.73;;;154.20;1894.40;;;;;;5076938;28;20021;-64
2021/12/07 08:13:49;;;;;;;56.85;31.42;;;154.20;1894.40;;;;;;5076575;28;20131;-64
2021/12/07 08:16:17;;;;;;;56.90;33.03;;;154.20;1894.40;;;;;;5076773;28;20107;-63
2021/12/07 08:18:45;;;;;;;65.75;37.08;;;154.20;1894.40;;;;;;5076665;28;20024;-61
2021/12/07 08:21:12;;;;;;;59.38;34.58;;;154.20;1920.00;;;;;;5076633;28;20032;-61
2021/12/07 08:23:39;;;;;;;57.78;33.08;;;154.20;1894.40;;;;;;5076481;28;20489;-61
2021/12/07 08:26:06;;;;;;;59.50;33.60;;;154.20;1894.40;;;;;;5076462;28;20024;-61
2021/12/07 08:28:32;;;;;;;50.67;29.08;;;154.20;1920.00;;;;;;5076721;28;20389;-64
2021/12/07 08:30:59;;;;;;;56.72;30.90;;;154.20;1920.00;;;;;;5076321;28;20039;-64
2021/12/07 08:33:24;;;;;;;52.28;30.98;;;154.20;1920.00;;;;;;5057738;28;20051;-63
2021/12/07 08:35:50;;;;;;;52.28;29.45;;;154.20;1920.00;;;;;;5076153;28;20025;-61
2021/12/07 08:38:17;;;;;;;62.72;33.97;;;154.20;1920.00;;;;;;5076259;28;20033;-61
2021/12/07 08:40:43;;;;;;;66.88;36.70;;;154.20;1920.00;;;;;;5076207;28;20462;-61
2021/12/07 08:43:12;;;;;;;78.88;40.30;;;154.20;1920.00;;;;;;5076116;28;20047;-62
2021/12/07 08:45:40;;;;;;;76.22;40.85;;;154.30;1920.00;;;;;;5076299;28;20445;-64
2021/12/07 08:48:06;;;;;;;68.47;36.55;;;154.30;1920.00;;;;;;5076325;28;20378;-61
2021/12/07 08:50:32;;;;;;;58.03;33.72;;;154.30;1894.40;;;;;;5076126;28;20112;-61
2021/12/07 08:53:03;;;;;;;53.65;30.05;;;154.30;1920.00;;;;;;5076122;28;20029;-61
2021/12/07 09:01:02;;;;;;;57.38;31.77;;;154.40;1920.00;;;;;;5076279;28;20031;-62
2021/12/07 09:03:28;;;;;;;55.10;30.65;;;154.40;1920.00;;;;;;5075630;28;20047;-63
2021/12/07 09:05:54;;;;;;;54.03;29.30;;;154.40;1894.40;;;;;;5076004;28;20107;-63
2021/12/07 09:08:20;;;;;;;57.80;31.52;;;154.40;1920.00;;;;;;5075883;28;20527;-64
2021/12/07 09:10:45;;;;;;;58.22;29.58;;;154.40;1894.40;;;;;;5075811;28;20024;-64
2021/12/07 09:13:11;;;;;;;59.53;30.55;;;154.40;1894.40;;;;;;5075747;28;20023;-64
2021/12/07 09:15:38;;;;;;;62.83;32.97;;;154.40;1894.40;;;;;;5075237;28;20497;-64
2021/12/07 09:18:04;;;;;;;56.10;31.30;;;154.40;1894.40;;;;;;5075431;28;20044;-61
2021/12/07 09:20:30;;;;;;;49.50;27.02;;;154.40;1894.40;;;;;;5075686;28;20024;-62
2021/12/07 09:22:56;;;;;;;49.58;27.05;;;154.50;1894.40;;;;;;5075624;28;20024;-63
2021/12/07 09:25:22;;;;;;;49.40;28.15;;;154.50;1894.40;;;;;;5075488;28;20039;-63
2021/12/07 09:27:48;;;;;;;52.42;29.25;;;154.40;1894.40;;;;;;5075374;28;20037;-64
2021/12/07 09:30:15;;;;;;;48.72;27.92;;;154.50;1920.00;;;;;;5075595;28;20025;-64
2021/12/07 09:32:42;;;;;;;50.25;27.90;;;154.50;1920.00;;;;;;5075379;28;20031;-64
2021/12/07 09:35:09;;;;;;;49.15;28.90;;;154.50;1920.00;;;;;;5075122;28;20127;-64
2021/12/07 09:37:36;;;;;;;53.38;28.30;;;179.20;1894.40;;;;;;5075379;28;20489;-61
2021/12/07 09:40:04;;;;;;;51.38;28.50;;;179.20;1894.40;;;;;;5075259;28;20029;-60
2021/12/07 09:42:30;;;;;;;50.08;27.00;;;179.20;1868.80;;;;;;5074753;28;20048;-64
2021/12/07 09:44:55;;;;;;;50.20;27.35;;;179.20;1894.40;;;;;;5075109;28;20030;-64
2021/12/07 09:47:21;;;;;;;44.58;24.52;;;179.20;1894.40;;;;;;5075115;28;20032;-64
2021/12/07 09:49:47;;;;;;;50.97;28.70;;;179.20;1868.80;;;;;;5074979;28;20123;-64
2021/12/07 09:52:13;;;;;;;49.50;27.48;;;179.20;1894.40;;;;;;5075309;28;20028;-63
2021/12/07 09:54:38;;;;;;;50.65;26.20;;;179.20;1868.80;;;;;;5074953;28;20048;-61
2021/12/07 09:57:05;;;;;;;51.05;26.77;;;179.20;1868.80;;;;;;5074865;28;20078;-61
2021/12/07 09:59:31;;;;;;;46.45;26.75;;;179.20;1868.80;;;;;;5074912;28;20029;-61
2021/12/07 10:01:57;;;;;;;51.97;29.48;;;179.20;1868.80;;;;;;5074520;28;20465;-61
2021/12/07 10:04:27;;;;;;;56.50;29.52;;;179.20;1868.80;;;;;;5074830;28;20025;-61
2021/12/07 10:06:54;;;;;;;50.55;28.33;;;179.20;1894.40;;;;;;5074511;28;20028;-64
2021/12/07 10:09:21;;;;;;;49.20;27.23;;;179.20;1868.80;;;;;;5074816;28;20027;-61
2021/12/07 10:11:52;;;;;;;52.22;28.55;;;179.20;1868.80;;;;;;5074448;28;20020;-61
2021/12/07 10:14:18;;;;;;;47.28;27.23;;;179.20;1868.80;;;;;;5074525;28;20106;-64
2021/12/07 10:16:47;;;;;;;51.65;29.90;;;179.20;1894.40;;;;;;5074273;28;20389;-60
2021/12/07 10:19:15;;;;;;;59.17;32.30;;;179.20;1894.40;;;;;;5074457;28;20090;-60
2021/12/07 10:21:43;;;;;;;53.60;30.85;;;179.30;1894.40;;;;;;5074586;28;20028;-61
2021/12/07 10:24:11;;;;;;;50.90;30.92;;;179.30;1894.40;;;;;;5074179;28;20036;-60
2021/12/07 10:26:43;;;;;;;49.70;29.33;;;179.30;1920.00;;;;;;5073788;28;20489;-64
2021/12/07 10:29:13;;;;;;;49.38;27.42;;;179.40;1894.40;;;;;;5073887;28;20036;-62
2021/12/07 10:31:43;;;;;;;53.20;27.60;;;179.40;1894.40;;;;;;5074342;28;20021;-61
2021/12/07 10:34:14;;;;;;;45.47;26.33;;;179.40;1894.40;;;;;;5073953;28;20064;-62
2021/12/07 10:36:46;;;;;;;44.05;25.92;;;179.40;1894.40;;;;;;5080901;28;20036;-61
2021/12/07 10:39:13;;;;;;;42.55;25.02;;;179.50;1894.40;;;;;;5083820;28;20454;-62
2021/12/07 10:42:06;;;;;;;45.10;25.15;;;179.50;1894.40;;;;;;5083128;28;20065;-61
2021/12/07 10:44:35;;;;;;;45.78;26.58;;;179.40;1868.80;;;;;;5083804;28;20024;-61
2021/12/07 10:47:07;;;;;;;43.95;26.40;;;179.50;1868.80;;;;;;5083733;28;20016;-61
2021/12/07 10:49:54;;;;;;;46.53;27.80;;;179.50;1868.80;;;;;;5079609;28;20024;-55
2021/12/07 10:52:26;;;;;;;43.17;24.70;;;179.50;1868.80;;;;;;5084015;28;20024;-56
2021/12/07 10:55:15;;;;;;;52.00;30.50;;;179.50;1868.80;;;;;;5083535;28;20388;-56
2021/12/07 10:58:01;;;;;;;45.05;27.15;;;179.50;1868.80;;;;;;5083661;28;20377;-58
2021/12/07 11:00:46;;;;;;;46.63;26.65;;;179.50;1868.80;;;;;;5077383;28;20033;-62
2021/12/07 11:03:17;;;;;;;44.78;28.50;;;179.50;1868.80;;;;;;5055007;28;20036;-60
2021/12/07 11:05:51;;;;;;;52.03;31.60;;;179.40;1868.80;;;;;;5073838;28;20079;-56
2021/12/07 11:08:19;;;;;;;52.33;30.13;;;179.40;1868.80;;;;;;5073728;28;20444;-59
2021/12/07 11:10:48;;;;;;;44.33;27.17;;;179.40;1894.40;;;;;;5073581;28;20031;-58
2021/12/07 11:13:23;;;;;;;51.53;26.48;;;179.50;1868.80;;;;;;5073681;28;20389;-56
2021/12/07 11:15:54;;;;;;;49.20;29.08;;;179.40;1868.80;;;;;;5073833;28;20078;-59
2021/12/07 11:18:26;;;;;;;55.78;29.55;;;179.40;1894.40;;;;;;5073609;28;20025;-59
2021/12/07 11:20:54;;;;;;;47.92;26.65;;;179.40;1868.80;;;;;;5073541;28;20024;-58
2021/12/07 11:23:28;;;;;;;47.08;27.35;;;179.40;1868.80;;;;;;5073536;28;20064;-57
2021/12/07 11:31:26;;;;;;;56.42;31.52;;;179.30;1894.40;;;;;;5083122;28;20031;-60
2021/12/07 11:33:55;;;;;;;50.03;27.25;;;179.30;1894.40;;;;;;5093350;28;20036;-59
2021/12/07 11:36:28;;;;;;;47.25;26.48;;;179.30;1894.40;;;;;;5093430;28;20048;-56
2021/12/07 11:38:56;;;;;;;45.33;26.52;;;179.30;1894.40;;;;;;5094945;28;20473;-60
2021/12/07 11:41:31;;;;;;;45.72;27.73;;;179.30;1894.40;;;;;;5097467;28;20022;-57
2021/12/07 11:44:02;;;;;;;47.72;27.20;;;179.20;1894.40;;;;;;5097937;28;20424;-60
2021/12/07 11:46:30;;;;;;;47.55;26.60;;;179.30;1894.40;;;;;;5097711;28;20024;-57
2021/12/07 11:49:16;;;;;;;44.72;25.48;;;179.20;1894.40;;;;;;5097529;28;20024;-57
2021/12/07 11:51:45;;;;;;;42.30;25.75;;;179.30;1894.40;;;;;;5097630;28;20108;-58
2021/12/07 11:54:12;;;;;;;42.22;25.88;;;179.20;1894.40;;;;;;5097803;28;20034;-56
2021/12/07 11:56:39;;;;;;;43.47;26.23;;;179.20;1920.00;;;;;;5097461;28;20016;-56
2021/12/07 11:59:06;;;;;;;48.35;29.20;;;179.20;1894.40;;;;;;5097451;28;20058;-59
2021/12/07 12:01:32;;;;;;;44.22;24.45;;;179.20;1894.40;;;;;;5097111;28;20359;-56
2021/12/07 12:03:58;;;;;;;41.63;24.85;;;179.20;1894.40;;;;;;5097129;28;20518;-57
2021/12/07 12:06:24;;;;;;;38.05;23.83;;;179.20;1894.40;;;;;;5097316;28;20020;-55
2021/12/07 12:08:50;;;;;;;47.13;26.17;;;179.20;1920.00;;;;;;5097243;28;20020;-59
2021/12/07 12:11:27;;;;;;;46.80;26.05;;;179.20;1920.00;;;;;;5096836;28;20020;-59
2021/12/07 12:14:51;;;;;;;44.83;25.20;;;179.20;1894.40;;;;;;5097106;28;20474;-60
2021/12/07 12:17:17;;;;;;;46.13;26.23;;;179.20;1894.40;;;;;;5014915;28;20453;-59
2021/12/07 12:20:09;;;;;;;47.40;26.20;;;179.20;1920.00;;;;;;5015019;28;20108;-60
2021/12/07 12:22:37;;;;;;;60.70;33.50;;;179.20;1920.00;;;;;;5014700;28;20072;-57
2021/12/07 12:25:11;;;;;;;55.05;30.73;;;179.20;1920.00;;;;;;5014723;28;20088;-59
2021/12/07 12:27:37;;;;;;;52.80;31.63;;;179.20;1920.00;;;;;;5014717;28;20018;-59
2021/12/07 12:30:24;;;;;;;45.35;25.75;;;179.20;1920.00;;;;;;5014522;28;20040;-59
2021/12/07 12:32:55;;;;;;;48.08;27.60;;;179.30;1920.00;;;;;;5014794;28;20034;-59
2021/12/07 12:35:52;;;;;;;45.13;27.65;;;179.30;1920.00;;;;;;5014777;28;20080;-59
2021/12/07 12:38:36;;;;;;;52.20;29.42;;;179.30;1920.00;;;;;;5013060;28;20458;-58
2021/12/07 12:41:07;;;;;;;52.95;29.23;;;179.30;1945.60;;;;;;5012539;28;20041;-55
2021/12/07 12:43:50;;;;;;;43.80;26.42;;;179.30;1920.00;;;;;;5012703;28;20388;-55
2021/12/07 12:46:19;;;;;;;48.28;27.38;;;179.40;1894.40;;;;;;5014341;28;20092;-57
2021/12/07 12:49:13;;;;;;;46.92;27.60;;;179.40;1894.40;;;;;;5076993;28;20039;-58
2021/12/07 12:51:48;;;;;;;39.90;25.45;;;179.30;1894.40;;;;;;5087872;28;20032;-57
2021/12/07 12:54:14;;;;;;;47.47;27.98;;;179.40;1894.40;;;;;;5085306;28;20107;-57
2021/12/07 12:56:40;;;;;;;44.95;26.65;;;179.40;1894.40;;;;;;5083126;28;20017;-59
2021/12/07 12:59:09;;;;;;;44.75;26.65;;;179.30;1894.40;;;;;;5075641;28;20365;-56
2021/12/07 13:01:40;;;;;;;48.85;26.83;;;179.30;1920.00;;;;;;5075910;28;20032;-57
2021/12/07 13:04:21;;;;;;;49.75;27.45;;;179.30;1920.00;;;;;;5080851;28;20474;-56
2021/12/07 13:07:05;;;;;;;47.63;26.75;;;179.30;1920.00;;;;;;5091388;28;20078;-57
2021/12/07 13:09:42;;;;;;;49.73;27.73;;;179.30;1920.00;;;;;;5095914;28;20032;-60
2021/12/07 13:12:17;;;;;;;45.28;27.48;;;179.30;1894.40;;;;;;5095715;28;20272;-57
2021/12/07 13:14:49;;;;;;;46.63;26.23;;;179.30;1920.00;;;;;;5080222;28;20433;-57
2021/12/07 13:17:17;;;;;;;47.90;26.90;;;179.30;1920.00;;;;;;5076231;28;20095;-59
2021/12/07 13:20:20;;;;;;;42.75;24.90;;;179.30;1894.40;;;;;;5076664;28;20032;-60
2021/12/07 13:23:12;;;;;;;53.97;28.70;;;179.30;1894.40;;;;;;5085325;28;20556;-59
2021/12/07 13:25:42;;;;;;;49.53;25.80;;;179.30;1894.40;;;;;;5095499;28;20028;-59
2021/12/07 13:28:31;;;;;;;55.45;27.23;;;179.30;1894.40;;;;;;5095876;28;20036;-56
2021/12/07 13:31:02;;;;;;;49.15;27.30;;;179.30;1868.80;;;;;;5082957;28;20359;-59
2021/12/07 13:33:35;;;;;;;45.53;25.35;;;179.20;1894.40;;;;;;5075235;28;20044;-59
2021/12/07 13:36:22;;;;;;;49.15;27.20;;;179.30;1920.00;;;;;;5075285;28;20044;-60
2021/12/07 13:38:49;;;;;;;53.85;29.02;;;179.20;1920.00;;;;;;5013311;28;20037;-58
2021/12/07 13:41:14;;;;;;;53.42;28.45;;;179.20;1920.00;;;;;;5012569;28;20084;-58
2021/12/07 13:43:44;;;;;;;46.78;24.65;;;179.20;1894.40;;;;;;5012968;28;20449;-60
2021/12/07 13:46:18;;;;;;;44.78;24.90;;;179.20;1920.00;;;;;;5013169;28;20076;-56
2021/12/07 13:48:46;;;;;;;48.27;25.30;;;179.20;1894.40;;;;;;5025758;28;20025;-59
2021/12/07 13:51:14;;;;;;;50.38;27.33;;;179.20;1894.40;;;;;;5031291;28;20263;-57
2021/12/07 13:53:42;;;;;;;52.75;26.50;;;179.20;1894.40;;;;;;5030783;28;20030;-60
2021/12/07 13:56:09;;;;;;;48.72;25.13;;;179.20;1894.40;;;;;;5031077;28;20535;-59
2021/12/07 13:59:01;;;;;;;42.00;24.30;;;179.20;1868.80;;;;;;5031426;28;20040;-56